TimeMST,TemperatureF,Dew PointF,Humidity,Sea Level PressureIn,VisibilityMPH,Wind Direction,Wind SpeedMPH,Gust SpeedMPH,PrecipitationIn,Events,Conditions,WindDirDegrees,DateUTC
12:16 AM,32.0,19.4,60,30.21,10.0,North,4.6,-,N/A,,Clear,10,2012-11-13 07:16:00
12:36 AM,32.0,19.4,60,30.20,10.0,Calm,Calm,-,N/A,,Clear,0,2012-11-13 07:36:00
12:56 AM,32.0,19.4,60,30.19,10.0,NNW,6.9,-,N/A,,Clear,340,2012-11-13 07:56:00
1:16 AM,32.0,19.4,60,30.19,10.0,Calm,Calm,-,N/A,,Clear,0,2012-11-13 08:16:00
1:36 AM,32.0,19.4,60,30.19,10.0,Calm,Calm,-,N/A,,Clear,0,2012-11-13 08:36:00
1:56 AM,32.0,19.4,60,30.19,10.0,West,3.5,-,N/A,,Clear,270,2012-11-13 08:56:00
2:16 AM,32.0,15.8,51,30.19,10.0,Calm,Calm,-,N/A,,Clear,0,2012-11-13 09:16:00
2:36 AM,33.8,14.0,44,30.18,10.0,NW,3.5,-,N/A,,Clear,310,2012-11-13 09:36:00
2:56 AM,32.0,12.2,44,30.18,10.0,NNW,5.8,-,N/A,,Clear,340,2012-11-13 09:56:00
3:15 AM,32.0,12.2,44,30.17,10.0,Calm,Calm,-,N/A,,Clear,0,2012-11-13 10:15:00
3:36 AM,32.0,10.4,41,30.16,10.0,Calm,Calm,-,N/A,,Clear,0,2012-11-13 10:36:00
3:56 AM,32.0,8.6,38,30.17,10.0,NW,6.9,-,N/A,,Clear,320,2012-11-13 10:56:00
4:16 AM,32.0,10.4,41,30.17,10.0,NNW,5.8,-,N/A,,Clear,340,2012-11-13 11:16:00
4:36 AM,33.8,6.8,32,30.17,10.0,North,8.1,-,N/A,,Clear,10,2012-11-13 11:36:00
4:55 AM,42.8,-5.8,13,30.17,10.0,West,20.7,26.5,N/A,,Clear,260,2012-11-13 11:55:00
5:52 AM,46.4,-2.2,13,30.18,50.0,WSW,12.7,-,N/A,,Mostly Cloudy,250,2012-11-13 12:52:00
6:52 AM,41.0,3.2,21,30.18,30.0,WNW,5.8,-,N/A,,Mostly Cloudy,290,2012-11-13 13:52:00
7:47 AM,35.6,10.4,35,30.22,30.0,NW,8.1,-,N/A,,Mostly Cloudy,320,2012-11-13 14:47:00
8:47 AM,39.2,10.4,31,30.24,30.0,NW,12.7,-,N/A,,Mostly Cloudy,320,2012-11-13 15:47:00
9:48 AM,50.0,8.6,19,30.23,70.0,West,17.3,23.0,N/A,,Mostly Cloudy,270,2012-11-13 16:48:00
10:47 AM,50.0,8.6,19,30.22,70.0,West,13.8,-,N/A,,Partly Cloudy,260,2012-11-13 17:47:00
11:08 AM,50.0,10.4,20,30.21,70.0,West,20.7,25.3,N/A,,Partly Cloudy,260,2012-11-13 18:08:00
11:49 AM,53.6,10.4,18,30.20,50.0,North,6.9,-,N/A,,Scattered Clouds,350,2012-11-13 18:49:00
12:46 PM,53.6,10.4,18,30.18,50.0,NW,4.6,-,N/A,,Partly Cloudy,310,2012-11-13 19:46:00
1:48 PM,53.6,12.2,19,30.18,50.0,North,8.1,-,N/A,,Partly Cloudy,350,2012-11-13 20:48:00
2:46 PM,53.6,12.2,19,30.18,50.0,West,17.3,-,N/A,,Partly Cloudy,260,2012-11-13 21:46:00
4:47 PM,46.4,12.2,25,30.21,60.0,WNW,10.4,-,N/A,,Partly Cloudy,290,2012-11-13 23:47:00
5:53 PM,41.0,23.0,49,30.25,60.0,NE,6.9,-,N/A,,Partly Cloudy,40,2012-11-14 00:53:00
6:53 PM,39.2,21.2,49,30.26,30.0,ENE,6.9,-,N/A,,Partly Cloudy,70,2012-11-14 01:53:00
7:46 PM,39.2,21.2,49,30.28,20.0,Calm,Calm,-,N/A,,Partly Cloudy,0,2012-11-14 02:46:00
8:47 PM,35.6,23.0,60,30.29,30.0,West,4.6,-,N/A,,Clear,270,2012-11-14 03:47:00
9:48 PM,32.0,21.2,64,30.28,30.0,WSW,5.8,-,N/A,,Clear,250,2012-11-14 04:48:00
10:15 PM,33.8,23.0,65,30.28,10.0,West,5.8,-,N/A,,Clear,260,2012-11-14 05:15:00
10:36 PM,33.8,23.0,65,30.27,10.0,Calm,Calm,-,N/A,,Clear,0,2012-11-14 05:36:00
10:56 PM,33.8,21.2,60,30.27,10.0,West,3.5,-,N/A,,Clear,260,2012-11-14 05:56:00
11:16 PM,33.8,23.0,65,30.26,10.0,SW,4.6,-,N/A,,Clear,220,2012-11-14 06:16:00
11:36 PM,35.6,21.2,56,30.25,10.0,Calm,Calm,-,N/A,,Clear,0,2012-11-14 06:36:00
11:55 PM,33.8,21.2,60,30.25,10.0,Calm,Calm,-,N/A,,Clear,0,2012-11-14 06:55:00